Time;durP1;ratioP1;P1;durP2;ratioP2;P2;SDS_P1;SDS_P2;PMS_P1;PMS_P2;Temp;Humidity;BMP_temperature;BMP_pressure;BME280_temperature;BME280_humidity;BME280_pressure;Samples;Min_cycle;Max_cycle;Signal;HPM_P1;HPM_P2
2023/10/31 00:00:16;;;;;;;55.27;43.43;;;;;22.10;98393.00;;;;2060939;28;20281;-55
2023/10/31 00:01:17;;;;;;;55.33;43.05;;;;;22.10;98405.00;;;;2045249;28;20223;-56
2023/10/31 00:02:17;;;;;;;54.63;43.03;;;;;22.10;98429.00;;;;2066919;28;20241;-55
2023/10/31 00:03:17;;;;;;;50.20;39.20;;;;;22.10;98431.00;;;;2053636;28;20215;-56
2023/10/31 00:04:18;;;;;;;51.97;41.30;;;;;22.10;98415.00;;;;2057786;28;20203;-55
2023/10/31 00:05:18;;;;;;;48.80;39.57;;;;;22.10;98419.00;;;;2069061;28;20337;-54
2023/10/31 00:06:18;;;;;;;50.13;38.90;;;;;22.00;98415.00;;;;2057763;28;20285;-55
2023/10/31 00:07:19;;;;;;;46.03;38.70;;;;;22.00;98425.00;;;;2061406;28;20704;-55
2023/10/31 00:08:19;;;;;;;44.60;37.47;;;;;22.00;98425.00;;;;2061713;28;20770;-55
2023/10/31 00:09:19;;;;;;;44.97;35.77;;;;;22.00;98428.00;;;;2065182;28;20332;-54
2023/10/31 00:10:20;;;;;;;44.03;33.90;;;;;22.00;98424.00;;;;2054089;28;20227;-56
2023/10/31 00:11:20;;;;;;;41.50;33.70;;;;;22.00;98441.00;;;;2050817;28;20222;-54
2023/10/31 00:12:20;;;;;;;42.93;33.77;;;;;22.00;98440.00;;;;2061226;28;20302;-54
2023/10/31 00:13:21;;;;;;;40.47;32.50;;;;;22.00;98456.00;;;;2060565;28;20226;-55
2023/10/31 00:14:21;;;;;;;40.70;33.40;;;;;22.00;98448.00;;;;2061572;28;20211;-55
2023/10/31 00:15:21;;;;;;;41.33;33.97;;;;;22.00;98459.00;;;;2061470;28;20282;-55
2023/10/31 00:16:22;;;;;;;41.97;33.13;;;;;22.00;98442.00;;;;2053780;28;20710;-55
2023/10/31 00:17:22;;;;;;;40.00;32.30;;;;;22.00;98468.00;;;;2061505;28;20235;-55
2023/10/31 00:18:22;;;;;;;40.13;32.07;;;;;22.00;98460.00;;;;2061922;28;20382;-53
2023/10/31 00:19:23;;;;;;;38.40;30.40;;;;;22.00;98466.00;;;;2061176;28;20241;-55
2023/10/31 00:20:23;;;;;;;34.50;30.50;;;;;22.00;98464.00;;;;2061070;28;20206;-55
2023/10/31 00:21:23;;;;;;;35.83;29.73;;;;;22.00;98457.00;;;;2056570;28;20325;-56
2023/10/31 00:22:24;;;;;;;38.60;28.40;;;;;22.00;98470.00;;;;2068594;28;20232;-55
2023/10/31 00:23:24;;;;;;;33.93;28.73;;;;;22.00;98457.00;;;;2064485;28;20272;-55
2023/10/31 00:24:25;;;;;;;38.53;30.60;;;;;22.00;98474.00;;;;2053454;28;20220;-55
2023/10/31 00:25:26;;;;;;;34.42;27.95;;;;;22.00;98477.00;;;;2055029;28;20215;-55
2023/10/31 00:26:26;;;;;;;34.73;29.23;;;;;21.90;98481.00;;;;2055442;28;20301;-55
2023/10/31 00:27:26;;;;;;;31.80;27.33;;;;;22.00;98466.00;;;;2061462;28;20211;-55
2023/10/31 00:28:27;;;;;;;31.63;27.30;;;;;22.00;98491.00;;;;2057975;28;20226;-56
2023/10/31 00:29:27;;;;;;;31.90;25.50;;;;;22.00;98494.00;;;;2053630;28;20294;-54
2023/10/31 00:30:27;;;;;;;34.77;27.30;;;;;22.00;98497.00;;;;2055539;28;20687;-55
2023/10/31 00:31:28;;;;;;;31.07;24.47;;;;;22.00;98492.00;;;;2043779;28;20606;-55
2023/10/31 00:32:28;;;;;;;32.27;25.90;;;;;22.00;98506.00;;;;2053766;28;20234;-56
2023/10/31 00:33:28;;;;;;;33.43;26.30;;;;;22.00;98499.00;;;;2063445;28;20269;-56
2023/10/31 00:34:29;;;;;;;30.13;24.57;;;;;22.00;98492.00;;;;2061387;28;20215;-55
2023/10/31 00:35:30;;;;;;;28.60;23.47;;;;;22.00;98497.00;;;;2053333;28;20219;-54
2023/10/31 00:36:31;;;;;;;31.08;25.10;;;;;22.00;98506.00;;;;2040564;28;20216;-55
2023/10/31 00:37:31;;;;;;;27.03;23.23;;;;;22.00;98503.00;;;;2058250;28;20244;-56
2023/10/31 00:38:31;;;;;;;28.10;23.20;;;;;22.00;98509.00;;;;2059619;28;20613;-55
2023/10/31 00:39:33;;;;;;;28.90;23.20;;;;;22.00;98519.00;;;;2053925;28;20573;-54
2023/10/31 00:40:34;;;;;;;27.23;21.75;;;;;21.90;98516.00;;;;2052738;28;20219;-58
2023/10/31 00:41:34;;;;;;;25.83;21.37;;;;;22.00;98510.00;;;;2045757;28;20231;-55
2023/10/31 00:42:34;;;;;;;27.10;22.80;;;;;22.00;98517.00;;;;2060115;28;20349;-56
2023/10/31 00:43:35;;;;;;;28.37;22.27;;;;;21.90;98529.00;;;;2055849;28;20214;-56
2023/10/31 00:44:35;;;;;;;27.20;22.60;;;;;21.90;98511.00;;;;2053491;28;20207;-55
2023/10/31 00:45:36;;;;;;;25.80;22.30;;;;;21.90;98521.00;;;;2050101;28;20294;-55
2023/10/31 00:46:36;;;;;;;26.23;20.60;;;;;21.90;98541.00;;;;2061545;28;20214;-56
2023/10/31 00:47:36;;;;;;;28.70;22.93;;;;;21.60;98521.00;;;;2064634;28;20306;-55
2023/10/31 00:48:37;;;;;;;27.63;22.37;;;;;21.90;98519.00;;;;2059474;28;20361;-54
2023/10/31 00:49:37;;;;;;;24.37;20.07;;;;;21.90;98537.00;;;;2058634;28;20262;-55
2023/10/31 00:50:37;;;;;;;23.60;20.27;;;;;21.90;98539.00;;;;2046391;28;20849;-55
2023/10/31 00:51:38;;;;;;;25.50;20.33;;;;;21.90;98524.00;;;;2060278;28;20590;-56
2023/10/31 00:52:38;;;;;;;26.27;20.73;;;;;21.30;98545.00;;;;2063534;28;20583;-55
2023/10/31 00:53:38;;;;;;;23.60;20.30;;;;;21.90;98540.00;;;;2052859;28;20319;-55
2023/10/31 00:54:39;;;;;;;24.40;20.30;;;;;21.90;98545.00;;;;2058516;28;21847;-55
2023/10/31 00:55:40;;;;;;;24.63;19.10;;;;;21.90;98545.00;;;;2038623;28;20237;-55
2023/10/31 00:56:41;;;;;;;23.33;19.90;;;;;21.90;98546.00;;;;2054135;28;20227;-55
2023/10/31 00:57:41;;;;;;;21.83;18.40;;;;;21.90;98543.00;;;;2059411;28;20233;-54
2023/10/31 00:58:41;;;;;;;20.73;17.63;;;;;21.90;98535.00;;;;2061074;28;20250;-55
2023/10/31 00:59:42;;;;;;;22.50;17.47;;;;;21.90;98541.00;;;;2064169;28;20581;-55
2023/10/31 01:00:42;;;;;;;22.33;18.27;;;;;21.90;98555.00;;;;2043780;28;20223;-54
2023/10/31 01:01:43;;;;;;;21.27;17.13;;;;;21.90;98556.00;;;;2061480;28;20474;-54
2023/10/31 01:02:43;;;;;;;20.57;16.27;;;;;21.90;98551.00;;;;2061155;28;20990;-55
2023/10/31 01:03:44;;;;;;;21.77;17.80;;;;;21.90;98550.00;;;;2059719;28;20226;-56
2023/10/31 01:04:44;;;;;;;23.27;18.10;;;;;21.90;98563.00;;;;2059913;28;20219;-56
2023/10/31 01:05:44;;;;;;;20.23;17.07;;;;;21.90;98559.00;;;;2048735;28;20222;-55
2023/10/31 01:06:45;;;;;;;21.20;17.20;;;;;21.90;98545.00;;;;2058775;28;20229;-55
2023/10/31 01:07:45;;;;;;;21.37;17.00;;;;;21.90;98560.00;;;;2060994;28;20305;-56
2023/10/31 01:08:45;;;;;;;19.40;16.70;;;;;21.90;98564.00;;;;2056673;28;20297;-55
2023/10/31 01:09:46;;;;;;;20.83;16.90;;;;;21.90;98561.00;;;;2053232;28;20234;-54
2023/10/31 01:10:46;;;;;;;21.03;16.00;;;;;21.90;98572.00;;;;2044522;28;20339;-55
2023/10/31 01:11:47;;;;;;;19.50;15.40;;;;;21.90;98561.00;;;;2060870;28;20230;-54
2023/10/31 01:12:47;;;;;;;16.83;14.90;;;;;21.90;98555.00;;;;2059513;28;20238;-55
2023/10/31 01:13:47;;;;;;;18.33;16.10;;;;;21.90;98576.00;;;;2056355;28;20254;-54
2023/10/31 01:14:48;;;;;;;18.23;14.57;;;;;21.90;98578.00;;;;2052988;28;20232;-55
2023/10/31 01:15:48;;;;;;;17.87;14.97;;;;;21.90;98569.00;;;;2042176;28;20330;-55
2023/10/31 01:16:48;;;;;;;18.90;14.63;;;;;21.80;98580.00;;;;2061117;28;20257;-55
2023/10/31 01:17:49;;;;;;;19.20;14.57;;;;;21.80;98586.00;;;;2061766;28;20227;-55
2023/10/31 01:18:49;;;;;;;17.80;14.53;;;;;21.80;98590.00;;;;2057021;28;20238;-54
2023/10/31 01:19:49;;;;;;;18.80;16.07;;;;;21.90;98595.00;;;;2053195;28;20305;-55
2023/10/31 01:20:50;;;;;;;18.67;15.20;;;;;21.90;98588.00;;;;2046638;28;20270;-56
2023/10/31 01:21:50;;;;;;;17.07;14.10;;;;;21.90;98591.00;;;;2060637;28;20309;-54
2023/10/31 01:22:50;;;;;;;16.77;14.23;;;;;21.80;98588.00;;;;2061931;28;20230;-55
2023/10/31 01:23:51;;;;;;;17.53;13.67;;;;;21.90;98593.00;;;;2060446;28;20255;-56
2023/10/31 01:24:51;;;;;;;17.30;13.93;;;;;21.90;98588.00;;;;2053513;28;20228;-55
2023/10/31 01:25:52;;;;;;;17.03;13.20;;;;;21.90;98608.00;;;;2050026;28;20815;-56
2023/10/31 01:26:52;;;;;;;16.47;13.10;;;;;21.90;98604.00;;;;2060111;28;20227;-59
2023/10/31 01:27:52;;;;;;;16.23;13.50;;;;;21.80;98603.00;;;;2060147;28;20222;-55
2023/10/31 01:28:53;;;;;;;16.23;12.93;;;;;21.80;98601.00;;;;2061074;28;20222;-55
2023/10/31 01:29:53;;;;;;;16.27;12.80;;;;;21.80;98600.00;;;;2058060;28;20309;-57
2023/10/31 01:30:53;;;;;;;14.53;12.53;;;;;21.80;98601.00;;;;2046980;28;20632;-56
2023/10/31 01:31:54;;;;;;;15.27;12.80;;;;;21.80;98603.00;;;;2052750;28;20652;-55
2023/10/31 01:32:54;;;;;;;15.23;12.37;;;;;21.80;98604.00;;;;2060359;28;20595;-54
2023/10/31 01:33:55;;;;;;;16.10;12.60;;;;;21.80;98608.00;;;;2060761;28;20229;-54
2023/10/31 01:34:55;;;;;;;16.20;12.60;;;;;21.80;98602.00;;;;2060619;28;20211;-55
2023/10/31 01:35:55;;;;;;;16.63;13.60;;;;;21.80;98604.00;;;;2056881;28;20257;-55
2023/10/31 01:36:56;;;;;;;14.80;12.10;;;;;21.80;98607.00;;;;2059208;28;20607;-55
2023/10/31 01:37:56;;;;;;;13.67;10.93;;;;;21.80;98610.00;;;;2059815;28;20226;-55
2023/10/31 01:38:56;;;;;;;14.60;12.17;;;;;21.80;98613.00;;;;2057615;28;20226;-55
2023/10/31 01:39:57;;;;;;;15.30;12.33;;;;;21.80;98640.00;;;;2056912;28;20975;-55
2023/10/31 01:40:57;;;;;;;15.27;12.30;;;;;21.80;98615.00;;;;2040832;28;20570;-54
2023/10/31 01:41:57;;;;;;;13.50;11.43;;;;;21.80;98622.00;;;;2056719;28;20664;-55
2023/10/31 01:42:58;;;;;;;13.97;11.43;;;;;21.80;98624.00;;;;2054496;28;20236;-55
2023/10/31 01:43:58;;;;;;;12.90;10.77;;;;;21.80;98627.00;;;;2057708;28;20219;-55
2023/10/31 01:44:58;;;;;;;14.47;11.47;;;;;21.80;98625.00;;;;2062383;28;20535;-56
2023/10/31 01:45:59;;;;;;;14.67;11.90;;;;;21.80;98626.00;;;;2050228;28;20326;-56
2023/10/31 01:46:59;;;;;;;14.17;10.80;;;;;21.80;98628.00;;;;2061147;28;20218;-56
2023/10/31 01:47:59;;;;;;;12.40;10.67;;;;;21.80;98630.00;;;;2060864;28;21013;-54
2023/10/31 01:49:00;;;;;;;11.07;9.57;;;;;21.80;98631.00;;;;2060404;28;20219;-55
2023/10/31 01:50:00;;;;;;;11.70;9.93;;;;;21.80;98632.00;;;;2063625;28;20223;-55
2023/10/31 01:51:02;;;;;;;11.87;10.47;;;;;21.80;98619.00;;;;2046608;28;20326;-55
2023/10/31 01:52:03;;;;;;;11.77;10.15;;;;;21.80;98631.00;;;;2057457;28;20277;-55
2023/10/31 01:53:04;;;;;;;12.47;10.13;;;;;21.80;98642.00;;;;2068373;28;20273;-55
2023/10/31 01:54:04;;;;;;;13.23;10.83;;;;;21.80;98636.00;;;;2071675;28;20514;-55
2023/10/31 01:55:05;;;;;;;11.67;10.13;;;;;21.80;98631.00;;;;2062748;28;20219;-56
2023/10/31 01:56:05;;;;;;;12.80;10.73;;;;;21.80;98632.00;;;;2050878;28;20223;-55
2023/10/31 01:57:06;;;;;;;11.20;9.43;;;;;21.80;98646.00;;;;2063283;28;20229;-55
2023/10/31 01:58:06;;;;;;;11.63;9.90;;;;;21.80;98644.00;;;;2060972;28;20245;-54
2023/10/31 01:59:06;;;;;;;12.90;10.10;;;;;21.80;98638.00;;;;2067935;28;20210;-55
2023/10/31 02:00:07;;;;;;;13.80;9.70;;;;;21.80;98640.00;;;;2068192;28;20999;-55
2023/10/31 02:01:07;;;;;;;12.17;9.90;;;;;21.80;98646.00;;;;2050000;28;20255;-55
2023/10/31 02:02:08;;;;;;;11.40;10.00;;;;;21.80;98639.00;;;;2055021;28;20345;-56
2023/10/31 02:03:08;;;;;;;10.97;9.13;;;;;21.80;98634.00;;;;2054075;28;20648;-55
2023/10/31 02:04:08;;;;;;;10.67;8.23;;;;;21.80;98641.00;;;;2057377;28;21167;-54
2023/10/31 02:05:09;;;;;;;11.33;9.20;;;;;21.70;98644.00;;;;2052707;28;20237;-55
2023/10/31 02:06:09;;;;;;;11.37;9.60;;;;;21.70;98634.00;;;;2042294;28;20256;-56
2023/10/31 02:07:10;;;;;;;10.83;8.90;;;;;21.80;98640.00;;;;2050446;28;20928;-55
2023/10/31 02:08:10;;;;;;;9.70;8.43;;;;;21.80;98634.00;;;;2053421;28;20253;-55
2023/10/31 02:09:11;;;;;;;12.50;9.27;;;;;21.80;98638.00;;;;2060532;28;20242;-54
2023/10/31 02:10:11;;;;;;;11.10;9.00;;;;;21.80;98639.00;;;;2060139;28;20227;-55
2023/10/31 02:11:11;;;;;;;9.53;8.10;;;;;21.80;98644.00;;;;2047847;28;20597;-54
2023/10/31 02:12:34;;;;;;;11.47;8.83;;;;;21.80;98649.00;;;;2058271;28;20261;-56
2023/10/31 02:13:35;;;;;;;11.00;9.52;;;;;21.80;98646.00;;;;2061180;28;20725;-55
2023/10/31 02:14:35;;;;;;;10.60;8.87;;;;;21.80;98651.00;;;;2066019;28;20234;-55
2023/10/31 02:15:36;;;;;;;9.33;8.33;;;;;21.70;98639.00;;;;2050814;28;20579;-55
2023/10/31 02:16:36;;;;;;;10.27;8.77;;;;;21.70;98644.00;;;;2050960;28;20326;-55
2023/10/31 02:17:36;;;;;;;10.53;8.50;;;;;21.70;98644.00;;;;2055858;28;20295;-55
2023/10/31 02:18:37;;;;;;;10.73;8.57;;;;;21.70;98636.00;;;;2060821;28;20590;-56
2023/10/31 02:19:37;;;;;;;8.73;7.77;;;;;21.70;98630.00;;;;2068526;28;20206;-56
2023/10/31 02:20:37;;;;;;;11.07;8.83;;;;;21.70;98632.00;;;;2063433;28;20288;-54
2023/10/31 02:21:39;;;;;;;9.90;8.17;;;;;21.70;98630.00;;;;2052750;28;20220;-55
2023/10/31 02:22:39;;;;;;;9.95;8.35;;;;;21.70;98631.00;;;;2061293;28;20587;-56
2023/10/31 02:23:39;;;;;;;8.50;7.60;;;;;21.70;98633.00;;;;2061018;28;20207;-56
2023/10/31 02:24:40;;;;;;;10.13;8.03;;;;;21.70;98634.00;;;;2058199;28;20297;-54
2023/10/31 02:25:40;;;;;;;10.80;8.17;;;;;21.70;98632.00;;;;2039927;28;20231;-55
2023/10/31 02:26:40;;;;;;;9.23;7.73;;;;;21.70;98643.00;;;;2057479;28;20224;-55
2023/10/31 02:27:41;;;;;;;10.13;7.57;;;;;21.70;98645.00;;;;2065892;28;20786;-55
2023/10/31 02:28:41;;;;;;;9.13;8.00;;;;;21.70;98633.00;;;;2060769;28;20989;-56
2023/10/31 02:29:41;;;;;;;8.83;7.23;;;;;21.70;98637.00;;;;2060051;28;20910;-56
2023/10/31 02:30:42;;;;;;;8.17;7.37;;;;;21.70;98629.00;;;;2047933;28;20301;-54
2023/10/31 02:31:42;;;;;;;9.60;7.03;;;;;21.70;98630.00;;;;2055853;28;20259;-54
2023/10/31 02:32:42;;;;;;;8.17;7.37;;;;;21.70;98625.00;;;;2052677;28;20313;-54
2023/10/31 02:33:43;;;;;;;8.17;6.97;;;;;21.70;98619.00;;;;2056726;28;20211;-55
2023/10/31 02:34:44;;;;;;;8.60;7.07;;;;;21.70;98637.00;;;;2064514;28;20225;-56
2023/10/31 02:35:45;;;;;;;9.55;7.28;;;;;21.70;98626.00;;;;2057799;28;20224;-55
2023/10/31 02:36:45;;;;;;;9.73;7.13;;;;;21.70;98636.00;;;;2061704;28;20618;-56
2023/10/31 02:37:46;;;;;;;8.70;7.37;;;;;21.70;98637.00;;;;2060767;28;20293;-56
2023/10/31 02:38:46;;;;;;;8.50;6.60;;;;;21.70;98648.00;;;;2057927;28;20309;-56
2023/10/31 02:39:46;;;;;;;7.47;6.53;;;;;21.70;98638.00;;;;2071675;28;20224;-54
2023/10/31 02:40:47;;;;;;;7.13;6.43;;;;;21.70;98640.00;;;;2049620;28;20210;-54
2023/10/31 02:41:47;;;;;;;7.17;6.47;;;;;21.70;98640.00;;;;2053508;28;20238;-55
2023/10/31 02:42:48;;;;;;;7.90;6.27;;;;;21.70;98645.00;;;;2054973;28;20237;-55
2023/10/31 02:43:48;;;;;;;8.07;6.60;;;;;21.70;98636.00;;;;2067897;28;20239;-55
2023/10/31 02:44:48;;;;;;;7.67;6.13;;;;;21.70;98640.00;;;;2068009;28;20221;-55
2023/10/31 02:45:48;;;;;;;6.57;5.57;;;;;21.70;98647.00;;;;2046197;28;20237;-55
2023/10/31 02:46:49;;;;;;;8.00;6.37;;;;;21.70;98647.00;;;;2058461;28;20219;-55
2023/10/31 02:47:49;;;;;;;8.00;6.53;;;;;21.70;98638.00;;;;2055298;28;20242;-55
2023/10/31 02:48:49;;;;;;;7.50;6.17;;;;;21.70;98644.00;;;;2060332;28;20298;-55
2023/10/31 02:49:50;;;;;;;7.70;5.90;;;;;21.70;98633.00;;;;2060603;28;20217;-56
2023/10/31 02:50:51;;;;;;;7.90;6.20;;;;;21.70;98634.00;;;;2048549;28;20308;-55
2023/10/31 02:51:51;;;;;;;8.40;5.90;;;;;21.70;98641.00;;;;2059951;28;20234;-54
2023/10/31 02:52:51;;;;;;;7.70;6.00;;;;;21.70;98641.00;;;;2060126;28;20462;-54
2023/10/31 02:53:52;;;;;;;6.90;5.70;;;;;21.70;98632.00;;;;2060211;28;20226;-54
2023/10/31 02:54:52;;;;;;;8.97;5.33;;;;;21.70;98644.00;;;;2060712;28;20238;-55
2023/10/31 02:55:52;;;;;;;6.73;5.43;;;;;21.60;98636.00;;;;2046236;28;20227;-53
2023/10/31 02:56:53;;;;;;;7.07;5.10;;;;;21.70;98507.00;;;;2052703;28;20227;-55
2023/10/31 02:57:53;;;;;;;6.93;5.60;;;;;21.70;98651.00;;;;2053011;28;20580;-55
2023/10/31 02:58:54;;;;;;;6.50;5.23;;;;;21.70;98652.00;;;;2053910;28;20230;-54
2023/10/31 02:59:54;;;;;;;6.83;5.60;;;;;21.70;98648.00;;;;2055852;28;20562;-55
2023/10/31 03:00:55;;;;;;;6.33;5.30;;;;;21.70;98655.00;;;;2048291;28;20232;-54
2023/10/31 03:01:56;;;;;;;7.37;5.27;;;;;21.60;98650.00;;;;2063123;28;20214;-56
2023/10/31 03:02:56;;;;;;;7.68;5.80;;;;;21.70;98655.00;;;;2066521;28;20238;-55
2023/10/31 03:03:56;;;;;;;6.90;5.60;;;;;21.70;98650.00;;;;2066356;28;20233;-54
2023/10/31 03:04:57;;;;;;;7.00;5.40;;;;;21.70;98652.00;;;;2060190;28;20627;-55
2023/10/31 03:05:57;;;;;;;5.90;4.83;;;;;21.60;98659.00;;;;2054003;28;20230;-55
2023/10/31 03:06:58;;;;;;;7.17;5.60;;;;;21.60;98656.00;;;;2060558;28;20940;-54
2023/10/31 03:07:58;;;;;;;6.67;5.50;;;;;21.70;98649.00;;;;2062776;28;20352;-53
2023/10/31 03:08:58;;;;;;;6.07;5.03;;;;;21.70;98652.00;;;;2058292;28;20234;-55
2023/10/31 03:09:59;;;;;;;6.30;4.83;;;;;21.70;98652.00;;;;2063852;28;20222;-55
2023/10/31 03:10:59;;;;;;;5.70;4.73;;;;;21.60;98651.00;;;;2049682;28;20318;-55
2023/10/31 03:11:59;;;;;;;8.13;5.67;;;;;21.70;98653.00;;;;2054113;28;20219;-55
2023/10/31 03:13:00;;;;;;;8.00;5.57;;;;;21.70;98656.00;;;;2060313;28;20258;-56
2023/10/31 03:14:00;;;;;;;5.53;4.50;;;;;21.70;98648.00;;;;2056449;28;20226;-54
2023/10/31 03:15:02;;;;;;;5.60;5.00;;;;;21.60;98654.00;;;;2064105;28;20681;-54
2023/10/31 03:16:03;;;;;;;6.05;5.05;;;;;21.70;98656.00;;;;2048914;28;20254;-59
2023/10/31 03:17:04;;;;;;;6.33;4.50;;;;;21.70;98653.00;;;;2062365;28;20218;-54
2023/10/31 03:18:04;;;;;;;8.00;5.50;;;;;21.60;98658.00;;;;2063764;28;20736;-54
2023/10/31 03:19:05;;;;;;;6.00;4.73;;;;;21.60;98659.00;;;;2062370;28;20226;-54
2023/10/31 03:20:06;;;;;;;5.90;4.90;;;;;21.60;98656.00;;;;2056140;28;20220;-55
2023/10/31 03:21:06;;;;;;;7.27;5.10;;;;;21.70;98668.00;;;;2041953;28;20717;-56
2023/10/31 03:22:06;;;;;;;6.40;4.50;;;;;21.70;98659.00;;;;2058252;28;20215;-56
2023/10/31 03:23:07;;;;;;;6.27;4.37;;;;;21.60;98701.00;;;;2065196;28;20239;-56
2023/10/31 03:24:07;;;;;;;5.93;4.80;;;;;21.70;98665.00;;;;2055648;28;20704;-54
2023/10/31 03:25:07;;;;;;;7.10;5.00;;;;;21.60;98667.00;;;;2059297;28;20566;-54
2023/10/31 03:26:08;;;;;;;6.90;5.20;;;;;21.60;98665.00;;;;2042734;28;20749;-55
2023/10/31 03:27:08;;;;;;;4.63;4.13;;;;;21.60;98663.00;;;;2066931;28;20218;-55
2023/10/31 03:28:18;;;;;;;6.40;4.30;;;;;21.60;98672.00;;;;2065662;28;20215;-55
2023/10/31 03:29:19;;;;;;;5.78;5.13;;;;;21.70;98669.00;;;;2061582;28;20581;-55
2023/10/31 03:30:19;;;;;;;6.13;4.70;;;;;21.30;98663.00;;;;2055561;28;20224;-54
2023/10/31 03:31:19;;;;;;;4.63;3.87;;;;;21.60;98673.00;;;;2050465;28;20230;-55
2023/10/31 03:32:20;;;;;;;5.20;4.50;;;;;21.60;98668.00;;;;2057790;28;20225;-55
2023/10/31 03:33:20;;;;;;;4.83;4.30;;;;;21.60;98661.00;;;;2056144;28;20293;-56
2023/10/31 03:34:21;;;;;;;5.37;4.37;;;;;21.60;98662.00;;;;2055223;28;20250;-55
2023/10/31 03:35:21;;;;;;;6.10;4.43;;;;;21.60;98668.00;;;;2054027;28;20231;-55
2023/10/31 03:36:21;;;;;;;5.37;3.97;;;;;21.60;98665.00;;;;2049854;28;20222;-56
2023/10/31 03:37:21;;;;;;;4.57;4.00;;;;;21.60;98683.00;;;;2055440;28;20246;-55
2023/10/31 03:38:22;;;;;;;5.33;4.10;;;;;21.60;98680.00;;;;2059117;28;20472;-54
2023/10/31 03:39:22;;;;;;;6.90;4.57;;;;;21.60;98670.00;;;;2061921;28;20215;-55
2023/10/31 03:40:23;;;;;;;4.30;3.70;;;;;21.60;98672.00;;;;2059631;28;21158;-55
2023/10/31 03:41:23;;;;;;;5.10;4.33;;;;;21.60;98667.00;;;;2052171;28;21315;-55
2023/10/31 03:42:23;;;;;;;4.20;3.80;;;;;21.60;98668.00;;;;2064242;28;20776;-56
2023/10/31 03:43:24;;;;;;;5.60;3.97;;;;;21.60;98670.00;;;;2065175;28;20681;-56
2023/10/31 03:44:24;;;;;;;5.73;4.40;;;;;21.60;98670.00;;;;2061955;28;20929;-54
2023/10/31 03:45:24;;;;;;;5.27;4.00;;;;;21.60;98667.00;;;;2060144;28;20284;-54
2023/10/31 03:46:25;;;;;;;5.93;4.30;;;;;21.60;98676.00;;;;2057214;28;20421;-55
2023/10/31 03:47:25;;;;;;;4.33;3.93;;;;;21.60;98680.00;;;;2069413;28;20213;-54
2023/10/31 03:48:25;;;;;;;5.20;4.40;;;;;21.60;98681.00;;;;2068328;28;20217;-56
2023/10/31 03:49:26;;;;;;;5.30;4.23;;;;;21.60;98679.00;;;;2056330;28;20352;-56
2023/10/31 03:50:26;;;;;;;4.57;3.93;;;;;21.60;98678.00;;;;2059192;28;20312;-56
2023/10/31 03:51:27;;;;;;;4.30;3.90;;;;;21.60;98684.00;;;;2046031;28;20270;-54
2023/10/31 03:52:27;;;;;;;5.50;4.10;;;;;21.60;98684.00;;;;2061139;28;21174;-55
2023/10/31 03:53:27;;;;;;;4.27;3.80;;;;;21.60;98683.00;;;;2060252;28;20582;-56
2023/10/31 03:54:28;;;;;;;4.67;3.90;;;;;21.60;98680.00;;;;2061520;28;20219;-55
2023/10/31 03:55:30;;;;;;;4.93;4.20;;;;;21.60;98676.00;;;;2060682;28;20281;-55
2023/10/31 03:56:30;;;;;;;5.05;3.63;;;;;21.60;98679.00;;;;2044664;28;20227;-55
2023/10/31 03:57:30;;;;;;;4.87;3.70;;;;;21.60;98679.00;;;;2059781;28;20211;-55
2023/10/31 03:58:31;;;;;;;6.03;4.37;;;;;21.60;98679.00;;;;2054629;28;20223;-56
2023/10/31 03:59:31;;;;;;;3.93;3.50;;;;;21.60;98683.00;;;;2060863;28;20254;-54
2023/10/31 04:00:31;;;;;;;4.37;3.60;;;;;21.60;98690.00;;;;2059181;28;20221;-54
2023/10/31 04:01:32;;;;;;;5.17;3.70;;;;;21.60;98684.00;;;;2051403;28;20211;-56
2023/10/31 04:02:32;;;;;;;3.53;3.10;;;;;21.60;98683.00;;;;2060814;28;20219;-55
2023/10/31 04:03:32;;;;;;;4.03;3.53;;;;;21.60;98685.00;;;;2061782;28;20215;-56
2023/10/31 04:04:33;;;;;;;3.33;2.77;;;;;21.50;98684.00;;;;2062971;28;20211;-54
2023/10/31 04:05:33;;;;;;;4.50;3.27;;;;;21.60;98686.00;;;;2068882;28;20217;-56
2023/10/31 04:06:33;;;;;;;5.33;3.73;;;;;21.60;98688.00;;;;2050870;28;20214;-55
2023/10/31 04:07:34;;;;;;;4.57;3.17;;;;;21.60;98685.00;;;;2064705;28;20285;-55
2023/10/31 04:08:34;;;;;;;4.80;3.40;;;;;21.50;98689.00;;;;2062122;28;20301;-55
2023/10/31 04:09:34;;;;;;;5.00;3.40;;;;;21.60;98695.00;;;;2060403;28;20207;-55
2023/10/31 04:10:35;;;;;;;4.70;3.40;;;;;21.60;98698.00;;;;2051583;28;20235;-56
2023/10/31 04:11:35;;;;;;;5.60;3.40;;;;;21.60;98697.00;;;;2051635;28;20261;-54
2023/10/31 04:12:35;;;;;;;4.77;3.43;;;;;21.60;98696.00;;;;2066759;28;20222;-55
2023/10/31 04:13:36;;;;;;;3.60;3.17;;;;;21.60;98699.00;;;;2046942;28;20356;-55
2023/10/31 04:14:38;;;;;;;5.20;3.33;;;;;21.60;98697.00;;;;2066061;28;20219;-54
2023/10/31 04:15:38;;;;;;;5.43;3.55;;;;;21.50;98695.00;;;;2043354;28;20220;-55
2023/10/31 04:16:40;;;;;;;4.30;3.33;;;;;21.50;98696.00;;;;2062646;28;20717;-55
2023/10/31 04:17:40;;;;;;;4.15;3.42;;;;;21.60;98694.00;;;;2061633;28;20226;-54
2023/10/31 04:18:40;;;;;;;4.03;3.17;;;;;21.60;98700.00;;;;2054154;28;20219;-56
2023/10/31 04:19:41;;;;;;;4.67;3.40;;;;;21.60;98696.00;;;;2060079;28;20211;-60
2023/10/31 04:20:41;;;;;;;4.10;2.87;;;;;21.60;98694.00;;;;2044494;28;20212;-57
2023/10/31 04:21:41;;;;;;;4.93;3.23;;;;;21.60;98696.00;;;;2063449;28;20285;-56
2023/10/31 04:22:42;;;;;;;4.00;3.40;;;;;21.60;98695.00;;;;2053618;28;20207;-57
2023/10/31 04:23:42;;;;;;;3.83;3.10;;;;;21.50;98703.00;;;;2055956;28;20758;-54
2023/10/31 04:24:43;;;;;;;4.67;3.37;;;;;21.50;98697.00;;;;2052369;28;20195;-55
2023/10/31 04:25:43;;;;;;;4.37;3.40;;;;;21.50;98691.00;;;;2050102;28;20223;-54
2023/10/31 04:26:44;;;;;;;4.80;3.50;;;;;21.50;98695.00;;;;2065984;28;20231;-56
2023/10/31 04:27:44;;;;;;;3.73;2.70;;;;;21.50;98705.00;;;;2061087;28;20362;-54
2023/10/31 04:28:44;;;;;;;5.40;3.80;;;;;21.50;98701.00;;;;2061700;28;20214;-55
2023/10/31 04:29:45;;;;;;;3.70;3.30;;;;;21.50;98701.00;;;;2069127;28;20296;-55
2023/10/31 04:30:45;;;;;;;4.00;3.07;;;;;21.50;98701.00;;;;2057384;28;20214;-54
2023/10/31 04:31:46;;;;;;;3.83;2.90;;;;;21.20;98699.00;;;;2054011;28;20214;-55
2023/10/31 04:32:46;;;;;;;3.93;3.50;;;;;21.50;98701.00;;;;2058926;28;20373;-55
2023/10/31 04:33:46;;;;;;;4.27;3.37;;;;;21.50;98706.00;;;;2064545;28;20217;-55
2023/10/31 04:34:47;;;;;;;4.00;3.17;;;;;21.50;98700.00;;;;2054503;28;20219;-56
2023/10/31 04:35:47;;;;;;;3.23;2.93;;;;;21.50;98701.00;;;;2051942;28;20279;-54
2023/10/31 04:36:47;;;;;;;3.77;3.37;;;;;21.50;98710.00;;;;2052295;28;20223;-55
2023/10/31 04:37:48;;;;;;;4.03;3.00;;;;;21.50;98707.00;;;;2060973;28;20215;-54
2023/10/31 04:38:48;;;;;;;3.10;2.67;;;;;21.50;98707.00;;;;2067684;28;20913;-55
2023/10/31 04:39:48;;;;;;;3.90;2.77;;;;;21.50;98712.00;;;;2053658;28;20947;-56
2023/10/31 04:40:49;;;;;;;3.50;2.90;;;;;21.50;98722.00;;;;2052991;28;20554;-55
2023/10/31 04:41:49;;;;;;;4.53;2.80;;;;;21.50;98713.00;;;;2053067;28;20602;-55
2023/10/31 04:42:49;;;;;;;3.70;3.20;;;;;21.50;98711.00;;;;2055203;28;20905;-54
2023/10/31 04:43:50;;;;;;;3.10;2.40;;;;;21.50;98709.00;;;;2054759;28;20255;-55
2023/10/31 04:44:50;;;;;;;3.50;2.70;;;;;21.50;98710.00;;;;2060578;28;20310;-55
2023/10/31 04:45:50;;;;;;;3.47;2.80;;;;;21.50;98715.00;;;;2048081;28;20238;-55
2023/10/31 04:46:51;;;;;;;4.20;3.40;;;;;21.50;98718.00;;;;2054646;28;20223;-55
2023/10/31 04:47:51;;;;;;;3.10;2.50;;;;;21.50;98715.00;;;;2068014;28;20298;-56
2023/10/31 04:48:51;;;;;;;3.70;3.23;;;;;21.50;98718.00;;;;2067539;28;20324;-55
2023/10/31 04:49:52;;;;;;;3.33;2.60;;;;;21.50;98723.00;;;;2056736;28;20272;-55
2023/10/31 04:50:52;;;;;;;3.73;2.67;;;;;21.50;98722.00;;;;2045150;28;20235;-54
2023/10/31 04:51:52;;;;;;;3.03;2.67;;;;;21.50;98714.00;;;;2060250;28;20215;-54
2023/10/31 04:52:53;;;;;;;3.30;2.80;;;;;21.50;98725.00;;;;2058867;28;20219;-55
2023/10/31 04:53:53;;;;;;;3.57;2.57;;;;;21.50;98727.00;;;;2053463;28;20581;-56
2023/10/31 04:54:53;;;;;;;3.03;2.60;;;;;21.50;98720.00;;;;2061177;28;20602;-56
2023/10/31 04:55:54;;;;;;;3.50;2.87;;;;;21.50;98718.00;;;;2044462;28;20219;-56
2023/10/31 04:56:55;;;;;;;4.30;2.90;;;;;21.50;98726.00;;;;2056402;28;20207;-54
2023/10/31 04:57:55;;;;;;;2.70;2.30;;;;;21.50;98728.00;;;;2056853;28;20210;-54
2023/10/31 04:58:55;;;;;;;3.83;2.77;;;;;21.50;98726.00;;;;2061706;28;21127;-55